TAM8118 SBGR-SUMU
Flight info
| Callsign | TAM8118 |
|---|---|
| Flight time | 2h 17m |
| Altitude | 34000 |
| Route | UBSOD UZ38 UMDEX DCT CXS DCT NIGRO UM792 CRR |
| Aircraft | A320/M-SDE3FGHIRWY/LB1 |
Departure
| Time | 2026-05-04 11:16 |
|---|---|
| Airport | São Paulo/Guarulhos–Governor André Franco Montoro International Airport (SBGR) |
Arrival
| Time | 2026-05-04 13:34 |
|---|---|
| Airport | Carrasco General Cesáreo L. Berisso International Airport (SUMU) |
| Time | Latitude | Longitude | Altitude | Speed | Heading |
|---|---|---|---|---|---|
| 2026-05-04 10:54 | -23.42737 | -46.47965 | 2465 ft | 0 kts | 264° |
| 2026-05-04 11:10 | -23.42690 | -46.47905 | 2465 ft | 0 kts | 169° |
| 2026-05-04 11:12 | -23.42822 | -46.47874 | 2466 ft | 9 kts | 169° |
| 2026-05-04 11:12 | -23.42880 | -46.47843 | 2464 ft | 10 kts | 148° |
| 2026-05-04 11:12 | -23.42955 | -46.47822 | 2465 ft | 12 kts | 170° |
| 2026-05-04 11:12 | -23.43032 | -46.47840 | 2466 ft | 11 kts | 230° |
| 2026-05-04 11:13 | -23.43056 | -46.47914 | 2467 ft | 10 kts | 253° |
| 2026-05-04 11:13 | -23.43076 | -46.47987 | 2469 ft | 10 kts | 253° |
| 2026-05-04 11:13 | -23.43096 | -46.48058 | 2466 ft | 10 kts | 253° |
| 2026-05-04 11:13 | -23.43133 | -46.48109 | 2469 ft | 8 kts | 194° |
| 2026-05-04 11:14 | -23.43184 | -46.48100 | 2472 ft | 7 kts | 159° |
| 2026-05-04 11:14 | -23.43239 | -46.48078 | 2467 ft | 12 kts | 161° |
| 2026-05-04 11:14 | -23.43332 | -46.48034 | 2463 ft | 16 kts | 125° |
| 2026-05-04 11:16 | -23.42963 | -46.46612 | 2470 ft | 145 kts | 73° |
| 2026-05-04 11:16 | -23.42641 | -46.45425 | 2703 ft | 166 kts | 72° |
| 2026-05-04 11:16 | -23.42302 | -46.44233 | 3299 ft | 168 kts | 73° |
| 2026-05-04 11:17 | -23.41941 | -46.43000 | 3685 ft | 179 kts | 75° |
| 2026-05-04 11:17 | -23.41540 | -46.41625 | 3890 ft | 202 kts | 75° |
| 2026-05-04 11:19 | -23.42437 | -46.28673 | 7670 ft | 283 kts | 111° |
| 2026-05-04 11:19 | -23.43168 | -46.26681 | 8402 ft | 286 kts | 122° |
| 2026-05-04 11:19 | -23.44567 | -46.25179 | 9081 ft | 286 kts | 155° |
| 2026-05-04 11:19 | -23.46484 | -46.24735 | 9785 ft | 286 kts | 186° |
| 2026-05-04 11:20 | -23.48452 | -46.25090 | 10455 ft | 291 kts | 192° |
| 2026-05-04 11:20 | -23.50499 | -46.25629 | 10624 ft | 314 kts | 200° |
| 2026-05-04 11:20 | -23.51853 | -46.26279 | 10721 ft | 328 kts | 210° |
| 2026-05-04 11:20 | -23.54394 | -46.28354 | 10987 ft | 354 kts | 226° |
| 2026-05-04 11:22 | -23.59512 | -46.45621 | 15525 ft | 370 kts | 257° |
| 2026-05-04 11:22 | -23.60050 | -46.48365 | 16184 ft | 371 kts | 257° |
| 2026-05-04 11:23 | -23.60591 | -46.51122 | 16821 ft | 372 kts | 257° |
| 2026-05-04 11:23 | -23.61110 | -46.53932 | 17476 ft | 374 kts | 259° |
| 2026-05-04 11:24 | -23.65530 | -46.70278 | 20843 ft | 388 kts | 239° |
| 2026-05-04 11:25 | -23.66985 | -46.72769 | 21373 ft | 390 kts | 239° |
| 2026-05-04 11:25 | -23.68448 | -46.75274 | 21900 ft | 393 kts | 239° |
| 2026-05-04 11:25 | -23.70029 | -46.77721 | 22385 ft | 398 kts | 232° |
| 2026-05-04 11:26 | -23.74353 | -46.81613 | 23362 ft | 413 kts | 214° |
| 2026-05-04 11:27 | -23.92058 | -46.92768 | 26468 ft | 421 kts | 216° |
| 2026-05-04 11:28 | -23.94583 | -46.94363 | 27041 ft | 418 kts | 216° |
| 2026-05-04 11:28 | -23.97092 | -46.95948 | 27614 ft | 416 kts | 216° |
| 2026-05-04 11:28 | -23.99588 | -46.97529 | 28210 ft | 413 kts | 216° |
| 2026-05-04 11:28 | -24.02064 | -46.99102 | 28797 ft | 411 kts | 216° |
| 2026-05-04 11:29 | -24.04532 | -47.00672 | 29389 ft | 409 kts | 217° |
| 2026-05-04 11:29 | -24.06980 | -47.02225 | 29983 ft | 406 kts | 217° |
| 2026-05-04 11:29 | -24.09421 | -47.03770 | 30511 ft | 404 kts | 217° |
| 2026-05-04 11:29 | -24.11853 | -47.05309 | 30973 ft | 403 kts | 217° |
| 2026-05-04 11:31 | -24.28650 | -47.16040 | 34001 ft | 395 kts | 219° |
| 2026-05-04 11:33 | -24.45355 | -47.27771 | 34209 ft | 413 kts | 219° |
| 2026-05-04 11:33 | -24.50211 | -47.31121 | 34210 ft | 412 kts | 219° |
| 2026-05-04 11:34 | -24.55052 | -47.34475 | 34221 ft | 411 kts | 219° |
| 2026-05-04 11:34 | -24.59875 | -47.37843 | 34224 ft | 411 kts | 219° |
| 2026-05-04 11:35 | -24.64693 | -47.41228 | 34236 ft | 411 kts | 219° |
| 2026-05-04 11:35 | -24.69511 | -47.44593 | 34235 ft | 410 kts | 219° |
| 2026-05-04 11:36 | -24.74323 | -47.47955 | 34236 ft | 410 kts | 219° |
| 2026-05-04 11:36 | -24.79137 | -47.51317 | 34235 ft | 409 kts | 219° |
| 2026-05-04 11:37 | -24.83938 | -47.54684 | 34236 ft | 409 kts | 219° |
| 2026-05-04 11:37 | -24.88732 | -47.58049 | 34233 ft | 408 kts | 219° |
| 2026-05-04 11:38 | -24.93519 | -47.61418 | 34235 ft | 408 kts | 219° |
| 2026-05-04 11:38 | -24.98301 | -47.64783 | 34236 ft | 408 kts | 219° |
| 2026-05-04 11:39 | -25.03049 | -47.68117 | 34238 ft | 407 kts | 219° |
| 2026-05-04 11:41 | -25.19742 | -47.79867 | 34243 ft | 406 kts | 219° |
| 2026-05-04 11:41 | -25.24493 | -47.83227 | 34237 ft | 405 kts | 219° |
| 2026-05-04 11:42 | -25.29239 | -47.86593 | 34238 ft | 405 kts | 219° |
| 2026-05-04 11:42 | -25.33980 | -47.89953 | 34238 ft | 405 kts | 219° |
| 2026-05-04 11:43 | -25.38719 | -47.93314 | 34238 ft | 405 kts | 218° |
| 2026-05-04 11:43 | -25.43459 | -47.96672 | 34230 ft | 405 kts | 218° |
| 2026-05-04 11:44 | -25.48196 | -48.00035 | 34235 ft | 404 kts | 218° |
| 2026-05-04 11:44 | -25.52930 | -48.03397 | 34231 ft | 404 kts | 218° |
| 2026-05-04 11:45 | -25.57665 | -48.06765 | 34235 ft | 404 kts | 218° |
| 2026-05-04 11:45 | -25.62391 | -48.10134 | 34234 ft | 404 kts | 218° |
| 2026-05-04 11:46 | -25.67118 | -48.13499 | 34238 ft | 404 kts | 218° |
| 2026-05-04 11:46 | -25.71850 | -48.16861 | 34238 ft | 404 kts | 218° |
| 2026-05-04 11:47 | -25.76544 | -48.20211 | 34237 ft | 404 kts | 218° |
| 2026-05-04 11:47 | -25.81274 | -48.23575 | 34242 ft | 404 kts | 218° |
| 2026-05-04 11:48 | -25.86006 | -48.26945 | 34241 ft | 404 kts | 218° |
| 2026-05-04 11:48 | -25.90723 | -48.30323 | 34240 ft | 404 kts | 218° |
| 2026-05-04 11:49 | -25.95445 | -48.33695 | 34235 ft | 403 kts | 218° |
| 2026-05-04 11:49 | -25.99550 | -48.36636 | 34235 ft | 403 kts | 218° |
| 2026-05-04 11:50 | -26.04265 | -48.40019 | 34238 ft | 403 kts | 218° |
| 2026-05-04 11:50 | -26.08982 | -48.43404 | 34237 ft | 403 kts | 218° |
| 2026-05-04 11:51 | -26.13701 | -48.46789 | 34235 ft | 403 kts | 218° |
| 2026-05-04 11:51 | -26.18418 | -48.50179 | 34232 ft | 403 kts | 218° |
| 2026-05-04 11:52 | -26.23130 | -48.53569 | 34231 ft | 403 kts | 218° |
| 2026-05-04 11:52 | -26.27842 | -48.56961 | 34226 ft | 403 kts | 218° |
| 2026-05-04 11:53 | -26.32555 | -48.60352 | 34232 ft | 403 kts | 218° |
| 2026-05-04 11:53 | -26.37261 | -48.63750 | 34227 ft | 403 kts | 218° |
| 2026-05-04 11:55 | -26.56018 | -48.77429 | 34235 ft | 403 kts | 218° |
| 2026-05-04 11:56 | -26.60688 | -48.80883 | 34236 ft | 402 kts | 218° |
| 2026-05-04 11:56 | -26.65360 | -48.84336 | 34228 ft | 403 kts | 218° |
| 2026-05-04 11:57 | -26.70039 | -48.87781 | 34233 ft | 403 kts | 217° |
| 2026-05-04 11:57 | -26.74736 | -48.91209 | 34231 ft | 403 kts | 217° |
| 2026-05-04 11:58 | -26.79440 | -48.94633 | 34227 ft | 403 kts | 217° |
| 2026-05-04 11:58 | -26.84109 | -48.98040 | 34224 ft | 403 kts | 217° |
| 2026-05-04 11:59 | -26.88807 | -49.01479 | 34227 ft | 403 kts | 217° |
| 2026-05-04 11:59 | -26.93501 | -49.04921 | 34235 ft | 404 kts | 217° |
| 2026-05-04 12:00 | -26.98201 | -49.08367 | 34234 ft | 404 kts | 217° |
| 2026-05-04 12:00 | -27.02901 | -49.11814 | 34237 ft | 403 kts | 217° |
| 2026-05-04 12:01 | -27.07590 | -49.15274 | 34239 ft | 404 kts | 217° |
| 2026-05-04 12:02 | -27.24050 | -49.27419 | 34250 ft | 405 kts | 217° |
| 2026-05-04 12:03 | -27.28760 | -49.30896 | 34251 ft | 405 kts | 217° |
| 2026-05-04 12:03 | -27.33463 | -49.34369 | 34250 ft | 405 kts | 217° |
| 2026-05-04 12:04 | -27.38169 | -49.37847 | 34246 ft | 405 kts | 217° |
| 2026-05-04 12:04 | -27.42866 | -49.41332 | 34249 ft | 404 kts | 217° |
| 2026-05-04 12:05 | -27.47565 | -49.44813 | 34257 ft | 404 kts | 217° |
| 2026-05-04 12:05 | -27.52267 | -49.48300 | 34251 ft | 405 kts | 217° |
| 2026-05-04 12:06 | -27.56099 | -49.51305 | 34245 ft | 402 kts | 224° |
| 2026-05-04 12:06 | -27.60266 | -49.55492 | 34246 ft | 401 kts | 224° |
| 2026-05-04 12:07 | -27.64433 | -49.59675 | 34249 ft | 401 kts | 224° |
| 2026-05-04 12:07 | -27.68602 | -49.63858 | 34246 ft | 401 kts | 224° |
| 2026-05-04 12:08 | -27.72776 | -49.68050 | 34244 ft | 402 kts | 224° |
| 2026-05-04 12:08 | -27.76953 | -49.72255 | 34245 ft | 402 kts | 224° |
| 2026-05-04 12:09 | -27.81132 | -49.76467 | 34244 ft | 403 kts | 224° |
| 2026-05-04 12:09 | -27.85320 | -49.80692 | 34244 ft | 403 kts | 224° |
| 2026-05-04 12:10 | -27.89501 | -49.84913 | 34243 ft | 403 kts | 224° |
| 2026-05-04 12:10 | -27.93685 | -49.89138 | 34244 ft | 403 kts | 224° |
| 2026-05-04 12:11 | -27.97871 | -49.93372 | 34239 ft | 404 kts | 224° |
| 2026-05-04 12:11 | -28.02052 | -49.97611 | 34236 ft | 404 kts | 224° |
| 2026-05-04 12:12 | -28.06243 | -50.01863 | 34232 ft | 404 kts | 224° |
| 2026-05-04 12:12 | -28.10424 | -50.06109 | 34227 ft | 404 kts | 224° |
| 2026-05-04 12:14 | -28.27154 | -50.23130 | 34210 ft | 404 kts | 224° |
| 2026-05-04 12:15 | -28.31331 | -50.27406 | 34207 ft | 404 kts | 224° |
| 2026-05-04 12:15 | -28.35483 | -50.31654 | 34208 ft | 404 kts | 224° |
| 2026-05-04 12:16 | -28.39658 | -50.35934 | 34205 ft | 404 kts | 224° |
| 2026-05-04 12:16 | -28.43838 | -50.40215 | 34204 ft | 404 kts | 224° |
| 2026-05-04 12:17 | -28.48020 | -50.44490 | 34207 ft | 404 kts | 224° |
| 2026-05-04 12:17 | -28.52200 | -50.48773 | 34211 ft | 404 kts | 224° |
| 2026-05-04 12:18 | -28.56376 | -50.53060 | 34205 ft | 405 kts | 224° |
| 2026-05-04 12:18 | -28.60544 | -50.57360 | 34203 ft | 405 kts | 224° |
| 2026-05-04 12:19 | -28.64716 | -50.61664 | 34202 ft | 405 kts | 224° |
| 2026-05-04 12:19 | -28.68891 | -50.65971 | 34200 ft | 405 kts | 224° |
| 2026-05-04 12:20 | -28.73069 | -50.70286 | 34198 ft | 405 kts | 224° |
| 2026-05-04 12:20 | -28.77249 | -50.74601 | 34198 ft | 405 kts | 224° |
| 2026-05-04 12:21 | -28.81427 | -50.78919 | 34195 ft | 405 kts | 224° |
| 2026-05-04 12:21 | -28.85602 | -50.83240 | 34190 ft | 405 kts | 224° |
| 2026-05-04 12:22 | -28.89773 | -50.87568 | 34183 ft | 405 kts | 224° |
| 2026-05-04 12:22 | -28.93942 | -50.91899 | 34179 ft | 405 kts | 224° |
| 2026-05-04 12:23 | -28.98111 | -50.96236 | 34179 ft | 406 kts | 224° |
| 2026-05-04 12:23 | -29.02282 | -51.00582 | 34178 ft | 406 kts | 224° |
| 2026-05-04 12:24 | -29.06454 | -51.04921 | 34168 ft | 406 kts | 224° |
| 2026-05-04 12:24 | -29.10628 | -51.09278 | 34172 ft | 406 kts | 224° |
| 2026-05-04 12:25 | -29.14798 | -51.13633 | 34174 ft | 406 kts | 224° |
| 2026-05-04 12:25 | -29.18974 | -51.17992 | 34175 ft | 406 kts | 224° |
| 2026-05-04 12:26 | -29.23226 | -51.22262 | 34187 ft | 407 kts | 222° |
| 2026-05-04 12:26 | -29.27614 | -51.26366 | 34176 ft | 407 kts | 221° |
| 2026-05-04 12:27 | -29.32007 | -51.30466 | 34175 ft | 407 kts | 221° |
| 2026-05-04 12:27 | -29.36370 | -51.34602 | 34163 ft | 407 kts | 222° |
| 2026-05-04 12:28 | -29.40705 | -51.38758 | 34155 ft | 406 kts | 222° |
| 2026-05-04 12:28 | -29.45043 | -51.42918 | 34145 ft | 406 kts | 222° |
| 2026-05-04 12:29 | -29.49359 | -51.47048 | 34145 ft | 406 kts | 222° |
| 2026-05-04 12:29 | -29.53715 | -51.51217 | 34124 ft | 413 kts | 222° |
| 2026-05-04 12:30 | -29.58165 | -51.55481 | 34122 ft | 418 kts | 222° |
| 2026-05-04 12:30 | -29.62632 | -51.59774 | 34120 ft | 418 kts | 222° |
| 2026-05-04 12:31 | -29.67094 | -51.64069 | 34120 ft | 418 kts | 222° |
| 2026-05-04 12:31 | -29.71583 | -51.68386 | 34120 ft | 418 kts | 223° |
| 2026-05-04 12:32 | -29.78270 | -51.74832 | 34129 ft | 418 kts | 223° |
| 2026-05-04 12:33 | -29.82699 | -51.79104 | 34132 ft | 418 kts | 223° |
| 2026-05-04 12:33 | -29.87151 | -51.83408 | 34134 ft | 418 kts | 223° |
| 2026-05-04 12:34 | -29.91602 | -51.87716 | 34137 ft | 418 kts | 223° |
| 2026-05-04 12:34 | -29.96048 | -51.92018 | 34141 ft | 417 kts | 223° |
| 2026-05-04 12:35 | -30.00494 | -51.96328 | 34141 ft | 417 kts | 223° |
| 2026-05-04 12:35 | -30.04929 | -52.00642 | 34140 ft | 417 kts | 223° |
| 2026-05-04 12:36 | -30.09359 | -52.04958 | 34143 ft | 417 kts | 223° |
| 2026-05-04 12:36 | -30.13789 | -52.09277 | 34141 ft | 417 kts | 223° |
| 2026-05-04 12:37 | -30.18217 | -52.13595 | 34136 ft | 417 kts | 223° |
| 2026-05-04 12:37 | -30.22641 | -52.17911 | 34136 ft | 416 kts | 224° |
| 2026-05-04 12:38 | -30.27072 | -52.22241 | 34132 ft | 417 kts | 224° |
| 2026-05-04 12:38 | -30.31475 | -52.26553 | 34132 ft | 417 kts | 224° |
| 2026-05-04 12:39 | -30.35927 | -52.30913 | 34130 ft | 417 kts | 224° |
| 2026-05-04 12:39 | -30.40354 | -52.35252 | 34127 ft | 417 kts | 224° |
| 2026-05-04 12:40 | -30.44755 | -52.39565 | 34124 ft | 417 kts | 224° |
| 2026-05-04 12:40 | -30.49206 | -52.43947 | 34125 ft | 417 kts | 224° |
| 2026-05-04 12:41 | -30.53608 | -52.48288 | 34125 ft | 418 kts | 224° |
| 2026-05-04 12:41 | -30.58033 | -52.52654 | 34120 ft | 418 kts | 224° |
| 2026-05-04 12:42 | -30.62465 | -52.57022 | 34122 ft | 418 kts | 224° |
| 2026-05-04 12:42 | -30.66898 | -52.61397 | 34125 ft | 418 kts | 224° |
| 2026-05-04 12:43 | -30.71324 | -52.65780 | 34128 ft | 418 kts | 224° |
| 2026-05-04 12:43 | -30.75754 | -52.70169 | 34126 ft | 418 kts | 224° |
| 2026-05-04 12:44 | -30.80184 | -52.74562 | 34128 ft | 418 kts | 224° |
| 2026-05-04 12:44 | -30.84611 | -52.78958 | 34128 ft | 419 kts | 224° |
| 2026-05-04 12:45 | -30.89040 | -52.83363 | 34132 ft | 419 kts | 224° |
| 2026-05-04 12:45 | -30.93464 | -52.87766 | 34131 ft | 419 kts | 225° |
| 2026-05-04 12:46 | -30.97888 | -52.92179 | 34135 ft | 419 kts | 225° |
| 2026-05-04 12:46 | -31.02307 | -52.96602 | 34133 ft | 419 kts | 225° |
| 2026-05-04 12:47 | -31.06737 | -53.01015 | 34136 ft | 419 kts | 225° |
| 2026-05-04 12:47 | -31.11160 | -53.05439 | 34135 ft | 418 kts | 225° |
| 2026-05-04 12:48 | -31.15572 | -53.09873 | 34133 ft | 419 kts | 225° |
| 2026-05-04 12:48 | -31.19989 | -53.14301 | 34127 ft | 419 kts | 225° |
| 2026-05-04 12:49 | -31.24410 | -53.18728 | 34132 ft | 419 kts | 225° |
| 2026-05-04 12:49 | -31.28831 | -53.23163 | 34125 ft | 419 kts | 225° |
| 2026-05-04 12:50 | -31.32491 | -53.26858 | 34126 ft | 419 kts | 225° |
| 2026-05-04 12:50 | -31.36897 | -53.31311 | 34126 ft | 419 kts | 225° |
| 2026-05-04 12:51 | -31.41305 | -53.35765 | 34117 ft | 419 kts | 225° |
| 2026-05-04 12:51 | -31.45720 | -53.40210 | 34115 ft | 419 kts | 225° |
| 2026-05-04 12:52 | -31.50129 | -53.44671 | 34118 ft | 419 kts | 225° |
| 2026-05-04 12:52 | -31.54532 | -53.49133 | 34115 ft | 419 kts | 225° |
| 2026-05-04 12:53 | -31.58937 | -53.53607 | 34109 ft | 419 kts | 225° |
| 2026-05-04 12:53 | -31.63333 | -53.58078 | 34115 ft | 419 kts | 225° |
| 2026-05-04 12:54 | -31.67735 | -53.62555 | 34113 ft | 418 kts | 225° |
| 2026-05-04 12:54 | -31.72132 | -53.67030 | 34112 ft | 418 kts | 225° |
| 2026-05-04 12:55 | -31.76524 | -53.71517 | 34111 ft | 418 kts | 225° |
| 2026-05-04 12:55 | -31.80919 | -53.76007 | 34117 ft | 418 kts | 225° |
| 2026-05-04 12:56 | -31.85309 | -53.80504 | 34116 ft | 418 kts | 225° |
| 2026-05-04 12:56 | -31.89699 | -53.84998 | 34115 ft | 418 kts | 226° |
| 2026-05-04 12:57 | -31.94084 | -53.89497 | 34115 ft | 418 kts | 226° |
| 2026-05-04 12:57 | -31.98689 | -53.93658 | 34113 ft | 423 kts | 219° |
| 2026-05-04 12:58 | -32.03559 | -53.97537 | 34117 ft | 423 kts | 219° |
| 2026-05-04 12:58 | -32.08425 | -54.01433 | 34109 ft | 422 kts | 219° |
| 2026-05-04 12:59 | -32.13280 | -54.05332 | 34101 ft | 422 kts | 219° |
| 2026-05-04 12:59 | -32.18157 | -54.09214 | 34090 ft | 423 kts | 219° |
| 2026-05-04 13:00 | -32.23071 | -54.13050 | 34084 ft | 423 kts | 219° |
| 2026-05-04 13:00 | -32.27981 | -54.16875 | 34078 ft | 423 kts | 219° |
| 2026-05-04 13:01 | -32.32880 | -54.20725 | 34077 ft | 423 kts | 219° |
| 2026-05-04 13:01 | -32.37767 | -54.24588 | 34078 ft | 422 kts | 219° |
| 2026-05-04 13:02 | -32.42658 | -54.28441 | 34077 ft | 422 kts | 219° |
| 2026-05-04 13:02 | -32.47546 | -54.32298 | 34089 ft | 422 kts | 219° |
| 2026-05-04 13:03 | -32.52429 | -54.36157 | 34096 ft | 422 kts | 219° |
| 2026-05-04 13:03 | -32.57305 | -54.40023 | 34106 ft | 422 kts | 219° |
| 2026-05-04 13:04 | -32.62178 | -54.43886 | 34113 ft | 421 kts | 219° |
| 2026-05-04 13:04 | -32.67050 | -54.47753 | 34110 ft | 421 kts | 219° |
| 2026-05-04 13:05 | -32.71917 | -54.51624 | 34110 ft | 421 kts | 219° |
| 2026-05-04 13:05 | -32.76791 | -54.55505 | 34113 ft | 421 kts | 219° |
| 2026-05-04 13:06 | -32.81629 | -54.59349 | 34110 ft | 421 kts | 219° |
| 2026-05-04 13:06 | -32.86493 | -54.63232 | 34105 ft | 421 kts | 219° |
| 2026-05-04 13:07 | -32.91356 | -54.67127 | 34103 ft | 422 kts | 219° |
| 2026-05-04 13:07 | -32.96235 | -54.71026 | 34097 ft | 422 kts | 219° |
| 2026-05-04 13:08 | -33.01111 | -54.74926 | 34084 ft | 422 kts | 219° |
| 2026-05-04 13:08 | -33.05998 | -54.78842 | 34082 ft | 423 kts | 219° |
| 2026-05-04 13:09 | -33.10876 | -54.82760 | 34083 ft | 423 kts | 220° |
| 2026-05-04 13:09 | -33.15755 | -54.86692 | 34084 ft | 423 kts | 220° |
| 2026-05-04 13:10 | -33.20637 | -54.90632 | 34080 ft | 424 kts | 220° |
| 2026-05-04 13:10 | -33.25521 | -54.94577 | 34085 ft | 424 kts | 220° |
| 2026-05-04 13:11 | -33.30409 | -54.98527 | 34086 ft | 424 kts | 220° |
| 2026-05-04 13:11 | -33.35262 | -55.02449 | 34088 ft | 424 kts | 220° |
| 2026-05-04 13:12 | -33.40155 | -55.06400 | 34089 ft | 424 kts | 220° |
| 2026-05-04 13:12 | -33.45042 | -55.10361 | 34088 ft | 424 kts | 220° |
| 2026-05-04 13:13 | -33.49929 | -55.14336 | 34089 ft | 424 kts | 220° |
| 2026-05-04 13:13 | -33.54813 | -55.18312 | 34086 ft | 424 kts | 220° |
| 2026-05-04 13:14 | -33.59694 | -55.22288 | 34083 ft | 424 kts | 220° |
| 2026-05-04 13:14 | -33.64572 | -55.26276 | 34082 ft | 424 kts | 220° |
| 2026-05-04 13:15 | -33.69447 | -55.30261 | 34081 ft | 424 kts | 220° |
| 2026-05-04 13:15 | -33.74334 | -55.34257 | 33645 ft | 425 kts | 220° |
| 2026-05-04 13:15 | -33.76741 | -55.36221 | 33124 ft | 411 kts | 220° |
| 2026-05-04 13:16 | -33.79102 | -55.38149 | 32869 ft | 411 kts | 220° |
| 2026-05-04 13:16 | -33.81461 | -55.40081 | 32257 ft | 407 kts | 220° |
| 2026-05-04 13:16 | -33.83776 | -55.41979 | 31457 ft | 399 kts | 220° |
| 2026-05-04 13:16 | -33.86048 | -55.43843 | 30644 ft | 392 kts | 220° |
| 2026-05-04 13:17 | -33.88282 | -55.45678 | 29816 ft | 387 kts | 220° |
| 2026-05-04 13:17 | -33.90508 | -55.47508 | 28955 ft | 389 kts | 220° |
| 2026-05-04 13:17 | -33.92763 | -55.49374 | 28046 ft | 397 kts | 220° |
| 2026-05-04 13:17 | -33.95054 | -55.51269 | 27087 ft | 403 kts | 220° |
| 2026-05-04 13:18 | -33.97389 | -55.53199 | 26085 ft | 410 kts | 219° |
| 2026-05-04 13:18 | -33.99742 | -55.55136 | 25464 ft | 408 kts | 219° |
| 2026-05-04 13:18 | -34.02086 | -55.57063 | 24809 ft | 406 kts | 219° |
| 2026-05-04 13:18 | -34.04413 | -55.58978 | 24148 ft | 405 kts | 219° |
| 2026-05-04 13:19 | -34.06735 | -55.60897 | 23459 ft | 404 kts | 219° |
| 2026-05-04 13:19 | -34.09049 | -55.62808 | 22752 ft | 401 kts | 219° |
| 2026-05-04 13:19 | -34.11341 | -55.64698 | 22099 ft | 398 kts | 219° |
| 2026-05-04 13:19 | -34.13618 | -55.66576 | 21453 ft | 395 kts | 219° |
| 2026-05-04 13:20 | -34.15873 | -55.68442 | 20808 ft | 392 kts | 219° |
| 2026-05-04 13:20 | -34.18087 | -55.70277 | 20172 ft | 391 kts | 219° |
| 2026-05-04 13:20 | -34.20325 | -55.72134 | 19543 ft | 389 kts | 219° |
| 2026-05-04 13:20 | -34.22551 | -55.73984 | 18932 ft | 389 kts | 220° |
| 2026-05-04 13:21 | -34.24806 | -55.75861 | 18323 ft | 388 kts | 220° |
| 2026-05-04 13:21 | -34.27029 | -55.77712 | 17691 ft | 387 kts | 220° |
| 2026-05-04 13:21 | -34.29205 | -55.79519 | 17134 ft | 384 kts | 219° |
| 2026-05-04 13:21 | -34.31406 | -55.81344 | 16589 ft | 382 kts | 219° |
| 2026-05-04 13:22 | -34.33598 | -55.83162 | 16037 ft | 380 kts | 219° |
| 2026-05-04 13:22 | -34.35771 | -55.84969 | 15487 ft | 378 kts | 219° |
| 2026-05-04 13:22 | -34.37936 | -55.86771 | 14933 ft | 376 kts | 219° |
| 2026-05-04 13:22 | -34.40086 | -55.88564 | 14370 ft | 375 kts | 219° |
| 2026-05-04 13:23 | -34.42223 | -55.90352 | 13785 ft | 374 kts | 219° |
| 2026-05-04 13:23 | -34.44357 | -55.92144 | 13151 ft | 372 kts | 218° |
| 2026-05-04 13:23 | -34.46473 | -55.93919 | 12541 ft | 369 kts | 218° |
| 2026-05-04 13:23 | -34.48559 | -55.95665 | 11936 ft | 367 kts | 218° |
| 2026-05-04 13:24 | -34.50671 | -55.97433 | 11318 ft | 365 kts | 218° |
| 2026-05-04 13:24 | -34.52742 | -55.99166 | 10980 ft | 356 kts | 218° |
| 2026-05-04 13:24 | -34.54713 | -56.00810 | 10858 ft | 341 kts | 218° |
| 2026-05-04 13:25 | -34.58468 | -56.03944 | 10605 ft | 317 kts | 218° |
| 2026-05-04 13:25 | -34.60252 | -56.05437 | 10494 ft | 307 kts | 218° |
| 2026-05-04 13:25 | -34.61983 | -56.06890 | 10375 ft | 298 kts | 219° |
| 2026-05-04 13:25 | -34.63660 | -56.08300 | 10245 ft | 289 kts | 219° |
| 2026-05-04 13:26 | -34.65298 | -56.09683 | 10116 ft | 283 kts | 219° |
| 2026-05-04 13:26 | -34.66915 | -56.11051 | 10014 ft | 284 kts | 219° |
| 2026-05-04 13:26 | -34.68551 | -56.12435 | 9588 ft | 289 kts | 218° |
| 2026-05-04 13:26 | -34.70184 | -56.13811 | 9196 ft | 285 kts | 219° |
| 2026-05-04 13:27 | -34.71805 | -56.15175 | 8791 ft | 281 kts | 219° |
| 2026-05-04 13:27 | -34.73401 | -56.16519 | 8403 ft | 276 kts | 219° |
| 2026-05-04 13:27 | -34.74958 | -56.17832 | 8035 ft | 268 kts | 219° |
| 2026-05-04 13:27 | -34.76470 | -56.19104 | 7670 ft | 260 kts | 219° |
| 2026-05-04 13:28 | -34.77941 | -56.20342 | 7321 ft | 255 kts | 219° |
| 2026-05-04 13:28 | -34.79382 | -56.21558 | 6973 ft | 249 kts | 219° |
| 2026-05-04 13:28 | -34.80794 | -56.22751 | 6638 ft | 248 kts | 219° |
| 2026-05-04 13:28 | -34.82220 | -56.23960 | 6287 ft | 251 kts | 219° |
| 2026-05-04 13:29 | -34.83663 | -56.25181 | 5929 ft | 255 kts | 218° |
| 2026-05-04 13:29 | -34.85307 | -56.26038 | 5626 ft | 261 kts | 193° |
| 2026-05-04 13:29 | -34.87108 | -56.25926 | 5238 ft | 263 kts | 166° |
| 2026-05-04 13:29 | -34.88709 | -56.24863 | 4813 ft | 264 kts | 146° |
| 2026-05-04 13:30 | -34.90181 | -56.23538 | 4380 ft | 261 kts | 146° |
| 2026-05-04 13:30 | -34.91627 | -56.22235 | 4010 ft | 257 kts | 146° |
| 2026-05-04 13:30 | -34.92934 | -56.20753 | 3608 ft | 256 kts | 121° |
| 2026-05-04 13:30 | -34.93359 | -56.18739 | 3215 ft | 242 kts | 79° |
| 2026-05-04 13:31 | -34.92796 | -56.16917 | 2892 ft | 223 kts | 52° |
| 2026-05-04 13:31 | -34.91889 | -56.15432 | 2602 ft | 217 kts | 45° |
| 2026-05-04 13:31 | -34.90919 | -56.14047 | 2316 ft | 211 kts | 43° |
| 2026-05-04 13:31 | -34.89979 | -56.12703 | 1982 ft | 206 kts | 43° |
| 2026-05-04 13:32 | -34.89090 | -56.11382 | 1681 ft | 196 kts | 44° |
| 2026-05-04 13:32 | -34.88276 | -56.10130 | 1405 ft | 181 kts | 45° |
| 2026-05-04 13:32 | -34.87550 | -56.08985 | 1202 ft | 162 kts | 45° |
| 2026-05-04 13:32 | -34.86897 | -56.07945 | 977 ft | 149 kts | 46° |
| 2026-05-04 13:33 | -34.86257 | -56.07001 | 739 ft | 142 kts | 44° |
| 2026-05-04 13:33 | -34.85665 | -56.06040 | 574 ft | 140 kts | 49° |
| 2026-05-04 13:33 | -34.85080 | -56.05109 | 386 ft | 137 kts | 48° |
| 2026-05-04 13:33 | -34.84507 | -56.04170 | 202 ft | 137 kts | 48° |
| 2026-05-04 13:34 | -34.83943 | -56.03258 | 92 ft | 126 kts | 50° |
| 2026-05-04 13:34 | -34.83517 | -56.02558 | 84 ft | 66 kts | 53° |
| 2026-05-04 13:34 | -34.83354 | -56.02291 | 83 ft | 34 kts | 53° |
| 2026-05-04 13:34 | -34.83247 | -56.02097 | 82 ft | 15 kts | 54° |
| 2026-05-04 13:35 | -34.83209 | -56.01999 | 83 ft | 11 kts | 98° |
| 2026-05-04 13:35 | -34.83258 | -56.01932 | 86 ft | 3 kts | 141° |
| 2026-05-04 13:35 | -34.83283 | -56.01909 | 82 ft | 6 kts | 144° |
| 2026-05-04 13:36 | -34.83323 | -56.01874 | 85 ft | 8 kts | 143° |
| 2026-05-04 13:36 | -34.83352 | -56.01846 | 82 ft | 0 kts | 142° |
| 2026-05-04 13:36 | -34.83354 | -56.01845 | 82 ft | 1 kts | 142° |
| 2026-05-04 13:36 | -34.83366 | -56.01833 | 84 ft | 4 kts | 142° |
| 2026-05-04 13:37 | -34.83406 | -56.01799 | 82 ft | 8 kts | 144° |
| 2026-05-04 13:37 | -34.83439 | -56.01770 | 82 ft | 5 kts | 146° |
| 2026-05-04 13:37 | -34.83455 | -56.01763 | 83 ft | 4 kts | 165° |
| 2026-05-04 13:37 | -34.83488 | -56.01769 | 83 ft | 6 kts | 207° |
| 2026-05-04 13:38 | -34.83518 | -56.01805 | 86 ft | 5 kts | 230° |
| 2026-05-04 13:38 | -34.83542 | -56.01844 | 85 ft | 7 kts | 233° |
| 2026-05-04 13:38 | -34.83574 | -56.01896 | 82 ft | 9 kts | 233° |
| 2026-05-04 13:38 | -34.83614 | -56.01961 | 84 ft | 9 kts | 233° |
| 2026-05-04 13:39 | -34.83654 | -56.02027 | 85 ft | 11 kts | 233° |
| 2026-05-04 13:39 | -34.83704 | -56.02110 | 83 ft | 13 kts | 233° |
| 2026-05-04 13:39 | -34.83766 | -56.02206 | 83 ft | 16 kts | 225° |
| 2026-05-04 13:39 | -34.83863 | -56.02243 | 84 ft | 15 kts | 183° |
| 2026-05-04 13:40 | -34.83942 | -56.02284 | 84 ft | 14 kts | 249° |
| 2026-05-04 13:40 | -34.83946 | -56.02411 | 82 ft | 16 kts | 270° |
| 2026-05-04 13:40 | -34.83946 | -56.02558 | 82 ft | 16 kts | 271° |
| 2026-05-04 13:40 | -34.83951 | -56.02665 | 82 ft | 2 kts | 255° |
| 2026-05-04 13:41 | -34.83963 | -56.02680 | 83 ft | 3 kts | 214° |
| 2026-05-04 13:41 | -34.83992 | -56.02676 | 85 ft | 6 kts | 154° |
| 2026-05-04 13:41 | -34.84016 | -56.02658 | 84 ft | 2 kts | 150° |
| 2026-05-04 13:42 | -34.84019 | -56.02656 | 84 ft | 0 kts | 148° |